»·PEaware :: DAL2575 KDEN-KSLC

DAL2575 :: KDEN-KSLC

FLIGHT INFORMATION

Flight Status: Arrived
Operator:
Delta Air Lines
More flights by this operator :: More flights under this callsign
Pilot: Colin A. (19898)
Aircraft: BOEING 737-800
(B738)
More flights by this aircraft type
Origin: KDEN Denver Intl
United States
Destination: KSLC Salt Lake City Intl
United States
More flights between these airports :: More routes between these airports
Route: FOOOT4 RLG EKR LEEHY5
File this flight plan on PilotEdge
Remarks: PBN / A1B1C1D1S1S2 DOF / 181005 REG / N806SB EET / KZLC0036 OPR / DAL PER / C RMK / TCAS SIMBRIEF
Altitude:
(Current/Filed)
34,000ft
Speed:
(Current/Filed)
455kts
Departed: 05-Oct-18 04:28 PM
Arrived: 05-Oct-18 05:29 PM
Distance/Time
Traveled:
339nm/1:00
Distance/Time
To Go:
Arrived

Flight Plot

Page will automatically refresh every two minutes.

Flight plan parsing failed; only flown route is shown


Map Options




Map Legend


Flown Route
Filed Route
Departure Airport
Arrival Airport
Navaid (VOR, NDB)
Fix

Horizontal Profiles

Position Reports

Time Latitude Longitude Heading Altitude Ground
Speed
05-Oct-18 16:09 39.853470 -104.678084 65 5439ft 0kts
05-Oct-18 16:10 39.853470 -104.678084 65 5439ft 0kts
05-Oct-18 16:11 39.853470 -104.678084 65 5439ft 0kts
05-Oct-18 16:12 39.853470 -104.678084 65 5439ft 0kts
05-Oct-18 16:13 39.853470 -104.678084 65 5439ft 0kts
05-Oct-18 16:14 39.853470 -104.678084 65 5439ft 0kts
05-Oct-18 16:15 39.853470 -104.678084 65 5439ft 0kts
05-Oct-18 16:16 39.853399 -104.678265 54 5439ft 2kts
05-Oct-18 16:17 39.852903 -104.678390 305 5439ft 2kts
05-Oct-18 16:18 39.852841 -104.678082 269 5439ft 0kts
05-Oct-18 16:19 39.852841 -104.678082 269 5439ft 0kts
05-Oct-18 16:20 39.852841 -104.678082 269 5439ft 0kts
05-Oct-18 16:21 39.852841 -104.678082 269 5439ft 0kts
05-Oct-18 16:22 39.852841 -104.678111 269 5439ft 1kts
05-Oct-18 16:23 39.853098 -104.682055 273 5438ft 9kts
05-Oct-18 16:24 39.853124 -104.682956 270 5439ft 0kts
05-Oct-18 16:25 39.853124 -104.682958 270 5439ft 0kts
05-Oct-18 16:26 39.852614 -104.685142 199 5439ft 17kts
05-Oct-18 16:27 39.852019 -104.692855 272 5439ft 25kts
05-Oct-18 16:28 39.852064 -104.694724 271 5439ft 0kts
05-Oct-18 16:29 39.852874 -104.696555 358 5439ft 24kts
05-Oct-18 16:30 39.885151 -104.696297 0 6091ft 172kts
05-Oct-18 16:31 39.912598 -104.750648 288 8130ft 238kts
05-Oct-18 16:32 39.931983 -104.847088 285 9882ft 308kts
05-Oct-18 16:33 39.945484 -104.959393 272 10937ft 337kts
05-Oct-18 16:34 39.956880 -105.081845 276 14081ft 347kts
05-Oct-18 16:35 39.971748 -105.208323 275 16937ft 357kts
05-Oct-18 16:36 39.984640 -105.338213 267 19547ft 364kts
05-Oct-18 16:37 39.980914 -105.471564 263 21837ft 374kts
05-Oct-18 16:38 39.977349 -105.586238 263 23208ft 386kts
05-Oct-18 16:39 39.973267 -105.748849 264 23266ft 385kts
05-Oct-18 16:40 39.971249 -105.866343 266 24787ft 392kts
05-Oct-18 16:41 39.980493 -106.034278 269 26896ft 402kts
05-Oct-18 16:42 39.987747 -106.156565 268 28233ft 406kts
05-Oct-18 16:43 39.995556 -106.304282 267 29652ft 411kts
05-Oct-18 16:44 40.003142 -106.452530 268 31161ft 411kts
05-Oct-18 16:45 40.010323 -106.601074 268 32579ft 410kts
05-Oct-18 16:46 40.017232 -106.749608 269 33835ft 410kts
05-Oct-18 16:47 40.024015 -106.898764 269 34231ft 412kts
05-Oct-18 16:48 40.031195 -107.047747 270 34244ft 412kts
05-Oct-18 16:49 40.037938 -107.197502 270 34249ft 413kts
05-Oct-18 16:50 40.044417 -107.347651 270 34247ft 414kts
05-Oct-18 16:51 40.050694 -107.498037 270 34235ft 416kts
05-Oct-18 16:52 40.057079 -107.649005 270 34225ft 416kts
05-Oct-18 16:53 40.062808 -107.799772 270 34218ft 417kts
05-Oct-18 16:54 40.068591 -107.951013 271 34219ft 417kts
05-Oct-18 16:55 40.075394 -108.102539 271 34213ft 417kts
05-Oct-18 16:56 40.081910 -108.253699 271 34199ft 417kts
05-Oct-18 16:57 40.088426 -108.404958 271 34182ft 417kts
05-Oct-18 16:58 40.095330 -108.556286 271 34167ft 417kts
05-Oct-18 16:59 40.101415 -108.707557 271 34160ft 417kts
05-Oct-18 17:00 40.107207 -108.859159 271 34159ft 418kts
05-Oct-18 17:01 40.112839 -109.011332 271 34157ft 418kts
05-Oct-18 17:02 40.118166 -109.163196 272 33646ft 420kts
05-Oct-18 17:03 40.123311 -109.316075 273 32150ft 423kts
05-Oct-18 17:04 40.128952 -109.471159 274 30647ft 428kts
05-Oct-18 17:05 40.134156 -109.627142 274 29151ft 433kts
05-Oct-18 17:06 40.139404 -109.785554 274 27651ft 439kts
05-Oct-18 17:07 40.144134 -109.946078 274 26152ft 446kts
05-Oct-18 17:08 40.148555 -110.107018 274 24648ft 438kts
05-Oct-18 17:09 40.148320 -110.265164 272 23366ft 431kts
05-Oct-18 17:10 40.146480 -110.415955 272 22546ft 404kts
05-Oct-18 17:11 40.144724 -110.561843 271 21668ft 398kts
05-Oct-18 17:12 40.143446 -110.705654 271 20764ft 392kts
05-Oct-18 17:13 40.141983 -110.847297 271 19867ft 388kts
05-Oct-18 17:14 40.140116 -110.988241 270 18962ft 386kts
05-Oct-18 17:15 40.137868 -111.127190 270 18064ft 380kts
05-Oct-18 17:16 40.135668 -111.264368 270 17162ft 376kts
05-Oct-18 17:17 40.133424 -111.398027 269 16257ft 352kts
05-Oct-18 17:18 40.131152 -111.518070 271 15989ft 308kts
05-Oct-18 17:19 40.159521 -111.627642 296 14856ft 339kts
05-Oct-18 17:20 40.212802 -111.728724 313 13115ft 337kts
05-Oct-18 17:21 40.276647 -111.813550 313 12124ft 312kts
05-Oct-18 17:22 40.340101 -111.881627 321 11507ft 285kts
05-Oct-18 17:23 40.405244 -111.929464 349 11070ft 252kts
05-Oct-18 17:24 40.469838 -111.937936 354 10122ft 220kts
05-Oct-18 17:25 40.525744 -111.944307 354 9025ft 186kts
05-Oct-18 17:26 40.576625 -111.950157 354 8056ft 182kts
05-Oct-18 17:27 40.626633 -111.955922 354 7096ft 179kts
05-Oct-18 17:28 40.675827 -111.961603 354 6155ft 176kts
05-Oct-18 17:29 40.724951 -111.967288 354 5219ft 180kts
05-Oct-18 17:30 40.772514 -111.972785 354 4321ft 154kts
05-Oct-18 17:31 40.792191 -111.975721 271 4235ft 0kts
05-Oct-18 17:32 40.792161 -111.976058 253 4235ft 0kts
05-Oct-18 17:33 40.791770 -111.980959 261 4235ft 26kts
05-Oct-18 17:34 40.791322 -111.984344 251 4235ft 0kts
05-Oct-18 17:35 40.789405 -111.983678 158 4235ft 14kts
05-Oct-18 17:36 40.788517 -111.984137 250 4235ft 0kts
05-Oct-18 17:37 40.788517 -111.984137 250 4235ft 0kts

Navigation Log

Ident Type
Flight plan parsing failed, navigation log unavailable